Pagina principale
METAR-TAF:

METAR-TAF

Aeroporti :

Aeroporto di Lugano-Agno

Lugano, Svizzera

latitudine: 46-00N, longitudine: 008-58E, altezza: 273 m

Osservazione

Il bollettino è stato emesso 37 minuti fa, alle 06:50 UTC
Vento 1 kt da direzioni variabili
Temperature 4°C
Umidità 75%
Pressione 1017 hPa
Visibilità 10 km o più
nessuna nube inferiore a 1500 m e nessun cumulonembo

METAR: LSZA 170650Z VRB01KT CAVOK 04/00 Q1017 NOSIG

Ora: 09:27 (07:27 UTC)

Previsione

Il bollettino è stato emesso 2 ore e 2 minuti fa, alle 05:25 UTC
Previsione valida dal 17 alle 06 UTC al 17 alle 15 UTC
Vento 2 kt da direzioni variabili
Visibilità 10 km o più
nessuna nube inferiore a 1500 m e nessun cumulonembo
Evoluzione graduale
dal 17 alle 07 UTC al 17 alle 10 UTC
Visibilità 10 km o più
Nubi sparse ad un'altezza di 5000 ft

TAF: LSZA 170525Z 1706/1715 VRB02KT CAVOK BECMG 1707/1710 9999 SCT050

Osservazioni e previsioni meteorologiche di più di 4000 aeroporti (messaggi METAR e TAF).

Le stazioni disponibili sono rappresentate dai dischi gialli e rossi sulla carta.

Puntare il mouse per vedere il nome della stazione.

Clicca sopra per visualizzare le osservazioni e previsioni meteorologiche.

Per cambiare la mappa : fare clic sui pulsanti verdi con una croce nera per ingrandire, il pulsante verde con un trattino per diminuire, o sulla freccia verde per le mappe adiacenti.


METAR-TAF: